Aérodrome :
LOGIN :

S'inscrire | Disclaimer

   EN    FR    IT 

 










Légende :    VFR   VFR Marginal   IFR   IFR Intensif   IFR Très Intensif
Visi : 
Plafond : 
>= 8 km
>= 3000ft
5 à 8 km
1000 à 3000 ft
1500m à 5 km
500 à 1000 ft
800 à 1500m
200 à 500 ft
< 800m
< 200 ft
Symboles :   Orages  Brouillard  Fortes neiges  Fortes précipitations  Vent > 20 kt
SIGMETs :   Divers  Orages  Givrage  Turbulence  Onde Orograph.  Cendres Volcan.






- Altitude de l'aérodrome : 870 ft
- Code IATA : ETZ


LFJL - Metz Nancy Lorraine

DERNIER METAR :
  • 200330Z AUTO 10007KT 3200 BR NSC 06/05 Q1017 TEMPO 0300 FG VV///

METARs EXPIRÉS :
  • 200300Z AUTO 09005KT 3700 BR NSC 07/06 Q1017 TEMPO 0300 FG VV///
  • 200230Z AUTO 00000KT 4400 BR NSC 07/06 Q1017 TEMPO 0300 FG VV///
  • 200200Z AUTO VRB01KT 4500 BR NSC 08/06 Q1017 TEMPO 0300 FG VV///
  • 200130Z AUTO 11004KT 5000 BR NSC 08/06 Q1017 TEMPO 0300 FG VV///
  • 200100Z AUTO VRB02KT 5000 BR NSC 08/07 Q1017 NOSIG

TAF TAF LFJL
Valide du 20 à 00h jusqu'au 21 à 00h UTC


192300Z 2000/2024 35005KT 9999 SCT040
TEMPO 2000/2009 3000 BR
PROB40
TEMPO 2003/2008 0300 FG VV///
TEMPO 2011/2017 -SHRA FEW040TCU



MET'MAP, la Météo Aéronautique d'un coup d'oeil ! - Copyright ORBIFLY Décembre 2007 - Disclaimer

ORBIFLY MET'MAP TEAM :

Programmation & Développement : Alexandra Zaïnal
Sur une idée originale de : Baudouin d'Aumeries
Assistance à la programmation : Marc-Olivier Méhu
Soutien technique & logistique : Manuel Goepfert

Contact : metmap@orbifly.com




SOURCES & CREDITS :

   NOAA